Pagrindinis puslapis
METAR-TAF:

METAR-TAF

Oro uostai :

Haugesiundas, Norvegija

platuma: 59-21N, ilguma: 005-13E, Aukštis: 2 m

Dabartinis oras

Ataskaita buvo paskelbta 5 minutes, ne 01:50 UTC
Vėjas 9 kt iš Pietų/Pietryčių
Temperatūra 4°C
Drėgmė 75%
Slėgis 1004 hPa
Matomumas 10 km arba daugiau
lietus,

METAR: ENHD 190150Z AUTO 15009KT 9999 -RA FEW023/// BKN053/// OVC061/// 04/00 Q1004 RERA

Laikas: 03:55 (01:55 UTC)

Prognozė

Ataskaita buvo paskelbta 10 valandos ir 43 minutes, ne 15:12 UTC
Prognozė galioja nuo 18 metu 15 UTC su 18 metu 20 UTC
Vėjas 12 kt iš Pietų/Pietryčių
Matomumas 10 km arba daugiau
Mažai debesys ne aukštis 1000 ft
Su prošvaistėmis ne aukštis 2000 ft
lietus
Laikinai
nuo 18 metu 15 UTC su 18 metu 20 UTC
Su prošvaistėmis ne aukštis 1200 ft
lietus,

TAF: ENHD 181512Z 1815/1820 16012KT 9999 -RA FEW010 BKN020 TEMPO 1815/1820 RA BKN012

Orai ataskaitas ir orų prognozės (METAR, TAF).

turimą stotys yra geltonos ir raudonos taškus žemėlapyje.

Perkelti pele per norėdami pamatyti stoties vardą.

Tada spustelėkite, norėdami matyti oro stebėjimo ir prognozės.

Norėdami pakeisti žemėlapį: spustelėkite ant žalios mygtukų su juodo kryžiaus žemyn,; žalią mygtuką su brūkšneliu, jei norite nutolinti; arba žalių rodyklių gretimoms žemėlapius.


METAR-TAF: